createdAt,value
2023-03-03T00:01:15.478Z,81.31
2023-03-03T00:03:42.117Z,80.97
2023-03-03T00:06:11.775Z,80.07
2023-03-03T00:08:39.288Z,81.19
2023-03-03T00:11:07.852Z,80.90
2023-03-03T00:13:46.131Z,80.58
2023-03-03T00:16:17.371Z,80.71
2023-03-03T00:18:47.200Z,80.77
2023-03-03T00:21:29.261Z,81.36
2023-03-03T00:24:16.855Z,81.40
2023-03-03T00:26:57.231Z,81.48
2023-03-03T00:29:31.478Z,80.78
2023-03-03T00:32:22.748Z,81.03
2023-03-03T00:34:50.693Z,81.27
2023-03-03T00:37:29.264Z,81.56
2023-03-03T00:40:22.116Z,81.86
2023-03-03T00:42:56.977Z,80.86
2023-03-03T00:45:23.383Z,81.27
2023-03-03T00:47:49.925Z,81.82
2023-03-03T00:50:34.346Z,81.60
2023-03-03T00:53:17.172Z,81.64
2023-03-03T00:55:44.149Z,81.57
2023-03-03T00:58:10.863Z,81.44
2023-03-03T01:00:38.530Z,81.40
2023-03-03T01:03:17.875Z,81.55
2023-03-03T01:05:44.766Z,81.11
2023-03-03T01:08:11.772Z,81.28
2023-03-03T01:10:53.163Z,81.15
2023-03-03T01:13:27.065Z,81.10
2023-03-03T01:15:54.349Z,81.85
2023-03-03T01:18:20.868Z,82.12
2023-03-03T01:20:47.456Z,81.79
2023-03-03T01:23:13.997Z,81.72
2023-03-03T01:25:40.520Z,81.83
2023-03-03T01:28:07.716Z,82.01
2023-03-03T01:30:34.245Z,81.87
2023-03-03T01:33:00.901Z,81.45
2023-03-03T01:35:27.470Z,81.27
2023-03-03T01:37:54.016Z,81.18
2023-03-03T01:40:26.361Z,81.61
2023-03-03T01:42:53.076Z,82.08
2023-03-03T01:45:23.367Z,81.73
2023-03-03T01:47:49.796Z,81.98
2023-03-03T01:50:28.130Z,82.40
2023-03-03T01:52:55.663Z,83.00
2023-03-03T01:55:30.892Z,82.72
2023-03-03T01:58:14.214Z,82.67
2023-03-03T02:00:43.996Z,82.59
2023-03-03T02:03:11.004Z,82.87
2023-03-03T02:05:39.332Z,82.47
2023-03-03T02:08:08.810Z,82.04
2023-03-03T02:10:35.864Z,82.79
2023-03-03T02:13:02.313Z,82.79
2023-03-03T02:15:32.357Z,82.61
2023-03-03T02:18:09.374Z,82.33
2023-03-03T02:20:51.001Z,82.37
2023-03-03T02:23:39.660Z,83.33
2023-03-03T02:26:13.177Z,82.75
2023-03-03T02:28:40.305Z,83.15
2023-03-03T02:31:13.568Z,82.88
2023-03-03T02:33:42.729Z,83.17
2023-03-03T02:36:13.804Z,82.34
2023-03-03T02:38:43.689Z,81.85
2023-03-03T02:41:26.434Z,82.37
2023-03-03T02:44:02.000Z,82.15
2023-03-03T02:46:32.602Z,81.66
2023-03-03T02:48:59.082Z,81.35
2023-03-03T02:51:25.566Z,81.25
2023-03-03T02:53:52.307Z,81.43
2023-03-03T02:56:18.888Z,81.07
2023-03-03T02:58:45.399Z,81.51
2023-03-03T03:01:12.146Z,81.69
2023-03-03T03:03:38.990Z,81.77
2023-03-03T03:06:05.837Z,82.24
2023-03-03T03:08:32.475Z,81.75
2023-03-03T03:10:59.046Z,81.72
2023-03-03T03:13:26.045Z,81.71
2023-03-03T03:15:52.621Z,81.92
2023-03-03T03:18:19.169Z,82.34
2023-03-03T03:20:47.515Z,81.47
2023-03-03T03:23:15.474Z,81.54
2023-03-03T03:25:47.990Z,82.04
2023-03-03T03:28:17.378Z,82.67
2023-03-03T03:30:45.699Z,82.83
2023-03-03T03:33:12.949Z,82.50
2023-03-03T03:35:45.440Z,81.96
2023-03-03T03:38:12.924Z,82.06
2023-03-03T03:40:40.290Z,82.50
2023-03-03T03:43:07.389Z,82.54
2023-03-03T03:45:34.205Z,83.08
2023-03-03T03:48:01.036Z,82.44
2023-03-03T03:50:27.596Z,83.34
2023-03-03T03:52:54.083Z,83.01
2023-03-03T03:55:20.576Z,82.67
2023-03-03T03:57:47.083Z,82.64
2023-03-03T04:00:14.278Z,82.19
2023-03-03T04:02:41.038Z,83.20
2023-03-03T04:05:08.127Z,82.51
2023-03-03T04:07:34.633Z,82.60
2023-03-03T04:10:01.307Z,82.53
2023-03-03T04:12:27.958Z,83.29
2023-03-03T04:14:54.499Z,82.86
2023-03-03T04:17:24.450Z,83.20
2023-03-03T04:19:53.543Z,82.72
2023-03-03T04:22:20.500Z,83.24
2023-03-03T04:24:48.624Z,82.95
2023-03-03T04:27:15.705Z,83.05
2023-03-03T04:29:42.539Z,83.46
2023-03-03T04:32:09.416Z,82.94
2023-03-03T04:34:35.924Z,82.79
2023-03-03T04:37:03.012Z,82.88
2023-03-03T04:39:29.573Z,82.42
2023-03-03T04:41:56.089Z,82.51
2023-03-03T04:44:22.604Z,82.57
2023-03-03T04:46:49.144Z,82.64
2023-03-03T04:49:15.648Z,83.06
2023-03-03T04:51:42.151Z,82.65
2023-03-03T04:54:08.609Z,83.27
2023-03-03T04:56:35.074Z,82.49
2023-03-03T04:59:01.721Z,83.16
2023-03-03T05:01:28.272Z,82.75
2023-03-03T05:03:54.737Z,82.47
2023-03-03T05:06:21.332Z,83.05
2023-03-03T05:08:47.909Z,82.57
2023-03-03T05:11:14.456Z,82.76
2023-03-03T05:13:41.057Z,83.17
2023-03-03T05:16:07.965Z,82.87
2023-03-03T05:18:34.521Z,83.12
2023-03-03T05:21:01.057Z,82.95
2023-03-03T05:23:27.716Z,83.52
2023-03-03T05:25:54.271Z,83.38
2023-03-03T05:28:20.974Z,82.95
2023-03-03T05:30:47.471Z,83.31
2023-03-03T05:33:16.098Z,82.97
2023-03-03T05:35:43.334Z,82.88
2023-03-03T05:38:10.392Z,82.62
2023-03-03T05:40:37.839Z,82.26
2023-03-03T05:43:04.600Z,83.17
2023-03-03T05:45:31.142Z,83.61
2023-03-03T05:47:57.659Z,83.34
2023-03-03T05:50:24.288Z,83.16
2023-03-03T05:52:51.943Z,83.91
2023-03-03T05:55:19.491Z,84.26
2023-03-03T05:57:46.193Z,84.33
2023-03-03T06:00:13.797Z,83.65
2023-03-03T06:02:41.221Z,83.41
2023-03-03T06:05:09.077Z,83.23
2023-03-03T06:07:35.995Z,83.68
2023-03-03T06:10:02.618Z,84.01
2023-03-03T06:12:29.149Z,83.63
2023-03-03T06:14:55.636Z,83.88
2023-03-03T06:17:22.177Z,84.11
2023-03-03T06:19:48.765Z,84.50
2023-03-03T06:22:15.459Z,83.90
2023-03-03T06:24:42.054Z,84.61
2023-03-03T06:27:09.682Z,84.34
2023-03-03T06:29:36.192Z,84.37
2023-03-03T06:32:03.003Z,84.43
2023-03-03T06:34:29.627Z,84.05
2023-03-03T06:36:57.091Z,84.27
2023-03-03T06:39:23.571Z,84.36
2023-03-03T06:41:50.110Z,83.74
2023-03-03T06:44:16.944Z,83.63
2023-03-03T06:46:43.666Z,83.75
2023-03-03T06:49:10.191Z,83.40
2023-03-03T06:51:39.887Z,83.95
2023-03-03T06:54:18.307Z,83.32
2023-03-03T06:56:46.168Z,83.48
2023-03-03T06:59:16.905Z,82.72
2023-03-03T07:01:46.747Z,82.75
2023-03-03T07:04:30.829Z,83.21
2023-03-03T07:06:59.321Z,82.22
2023-03-03T07:09:28.288Z,82.27
2023-03-03T07:12:06.328Z,81.69
2023-03-03T07:14:42.386Z,81.57
2023-03-03T07:17:15.447Z,81.65
2023-03-03T07:19:43.655Z,81.35
2023-03-03T07:22:19.764Z,81.15
2023-03-03T07:24:52.842Z,81.11
2023-03-03T07:27:19.564Z,80.83
2023-03-03T07:29:48.278Z,80.74
2023-03-03T07:32:44.185Z,80.71
2023-03-03T07:35:37.724Z,80.80
2023-03-03T07:38:32.300Z,80.79
2023-03-03T07:41:01.653Z,80.45
2023-03-03T07:43:39.931Z,80.49
2023-03-03T07:46:42.981Z,80.45
2023-03-03T07:49:22.223Z,80.31
2023-03-03T07:51:57.537Z,80.20
2023-03-03T07:54:29.898Z,80.28
2023-03-03T07:57:02.190Z,80.07
2023-03-03T07:59:28.679Z,79.85
2023-03-03T08:01:58.764Z,79.42
2023-03-03T08:04:50.959Z,78.76
2023-03-03T08:07:19.433Z,78.30
2023-03-03T08:09:52.072Z,78.56
2023-03-03T08:12:42.165Z,78.33
2023-03-03T08:15:22.793Z,78.92
2023-03-03T08:17:51.386Z,77.97
2023-03-03T08:20:41.949Z,77.49
2023-03-03T08:23:08.491Z,78.35
2023-03-03T08:25:34.934Z,78.31
2023-03-03T08:28:01.492Z,78.41
2023-03-03T08:30:28.015Z,79.01
2023-03-03T08:32:54.547Z,77.92
2023-03-03T08:35:21.081Z,78.61
2023-03-03T08:37:47.581Z,76.73
2023-03-03T08:40:14.144Z,76.09
2023-03-03T08:42:40.749Z,74.90
2023-03-03T08:45:07.499Z,76.76
2023-03-03T08:47:34.066Z,75.81
2023-03-03T08:50:00.590Z,74.38
2023-03-03T08:52:27.103Z,74.12
2023-03-03T08:54:54.250Z,72.98
2023-03-03T08:57:20.717Z,73.19
2023-03-03T08:59:47.851Z,72.60
2023-03-03T09:02:14.366Z,72.63
2023-03-03T09:04:43.978Z,71.74
2023-03-03T09:07:11.286Z,72.63
2023-03-03T09:09:37.757Z,72.41
2023-03-03T09:12:33.333Z,72.53
2023-03-03T09:15:15.251Z,70.68
2023-03-03T09:17:42.159Z,70.46
2023-03-03T09:20:33.751Z,71.18
2023-03-03T09:23:25.425Z,71.07
2023-03-03T09:25:52.788Z,69.38
2023-03-03T09:28:30.676Z,69.95
2023-03-03T09:30:59.767Z,69.49
2023-03-03T09:33:29.650Z,69.76
2023-03-03T09:36:24.673Z,68.85
2023-03-03T09:38:51.942Z,68.46
2023-03-03T09:41:40.306Z,66.43
2023-03-03T09:44:06.966Z,66.83
2023-03-03T09:46:51.774Z,66.44
2023-03-03T09:49:26.964Z,66.27
2023-03-03T09:52:35.382Z,65.28
2023-03-03T09:55:52.733Z,65.15
2023-03-03T09:58:45.632Z,67.09
2023-03-03T10:01:24.340Z,64.93
2023-03-03T10:04:02.543Z,63.82
2023-03-03T10:06:46.142Z,63.48
2023-03-03T10:09:44.919Z,62.88
2023-03-03T10:12:28.174Z,63.11
2023-03-03T10:15:30.032Z,61.47
2023-03-03T10:18:24.523Z,60.88
2023-03-03T10:20:59.744Z,61.63
2023-03-03T10:23:59.204Z,60.35
2023-03-03T10:27:13.531Z,60.61
2023-03-03T10:29:46.506Z,61.01
2023-03-03T10:32:31.537Z,60.93
2023-03-03T10:35:11.969Z,59.53
2023-03-03T10:38:06.181Z,60.90
2023-03-03T10:40:47.009Z,60.82
2023-03-03T10:43:26.130Z,60.08
2023-03-03T10:46:03.857Z,61.77
2023-03-03T10:49:02.300Z,62.90
2023-03-03T10:51:38.139Z,61.54
2023-03-03T10:54:34.718Z,60.59
2023-03-03T10:57:14.794Z,60.67
2023-03-03T10:59:55.787Z,59.08
2023-03-03T11:03:00.717Z,58.11
2023-03-03T11:05:57.926Z,57.93
2023-03-03T11:08:35.057Z,57.44
2023-03-03T11:11:24.462Z,54.56
2023-03-03T11:14:13.508Z,52.44
2023-03-03T11:17:23.807Z,48.70
2023-03-03T11:20:16.256Z,47.56
2023-03-03T11:23:10.330Z,50.10
2023-03-03T11:26:01.056Z,49.57
2023-03-03T11:28:44.786Z,50.78
2023-03-03T11:31:43.454Z,49.16
2023-03-03T11:34:44.887Z,47.61
2023-03-03T11:37:26.312Z,46.42
2023-03-03T11:39:57.010Z,45.51
2023-03-03T11:42:58.449Z,46.41
2023-03-03T11:45:39.958Z,44.07
2023-03-03T11:48:30.621Z,43.88
2023-03-03T11:51:41.573Z,42.30
2023-03-03T11:54:28.892Z,43.63
2023-03-03T11:57:15.264Z,42.46
2023-03-03T11:59:55.592Z,42.33
2023-03-03T12:02:26.420Z,42.10
2023-03-03T12:05:04.841Z,41.37
2023-03-03T12:07:43.593Z,41.69
2023-03-03T12:10:23.515Z,40.05
2023-03-03T12:12:58.600Z,39.59
2023-03-03T12:15:54.410Z,39.58
2023-03-03T12:18:33.004Z,39.81
2023-03-03T12:21:18.209Z,40.42
2023-03-03T12:23:57.883Z,39.92
2023-03-03T12:26:53.998Z,42.72
2023-03-03T12:29:58.206Z,40.23
2023-03-03T12:32:24.673Z,39.88
2023-03-03T12:35:16.260Z,40.41
2023-03-03T12:37:48.063Z,40.16
2023-03-03T12:40:20.491Z,40.38
2023-03-03T12:43:24.498Z,40.79
2023-03-03T12:46:07.907Z,41.22
2023-03-03T12:48:43.520Z,41.10
2023-03-03T12:51:56.263Z,41.76
2023-03-03T12:54:29.290Z,39.40
2023-03-03T12:57:08.605Z,39.75
2023-03-03T13:00:10.904Z,43.06
2023-03-03T13:02:43.503Z,41.95
2023-03-03T13:05:45.833Z,41.07
2023-03-03T13:08:56.144Z,41.69
2023-03-03T13:11:44.411Z,40.63
2023-03-03T13:14:34.969Z,40.80
2023-03-03T13:17:27.894Z,40.96
2023-03-03T13:20:00.998Z,40.73
2023-03-03T13:23:06.647Z,41.13
2023-03-03T13:25:46.323Z,41.54
2023-03-03T13:28:56.867Z,42.16
2023-03-03T13:31:32.121Z,42.04
2023-03-03T13:34:00.358Z,42.28
2023-03-03T13:36:42.162Z,43.84
2023-03-03T13:39:27.582Z,43.40
2023-03-03T13:42:04.524Z,42.92
2023-03-03T13:44:40.140Z,47.01
2023-03-03T13:47:32.698Z,46.97
2023-03-03T13:50:25.139Z,48.52
2023-03-03T13:52:57.375Z,46.97
2023-03-03T13:55:44.958Z,46.48
2023-03-03T13:58:25.331Z,45.95
2023-03-03T14:00:58.964Z,45.73
2023-03-03T14:04:13.373Z,46.91
2023-03-03T14:06:41.471Z,46.50
2023-03-03T14:09:10.916Z,46.80
2023-03-03T14:12:00.734Z,47.46
2023-03-03T14:14:53.020Z,46.13
2023-03-03T14:17:25.206Z,47.29
2023-03-03T14:20:13.707Z,48.20
2023-03-03T14:23:18.535Z,48.73
2023-03-03T14:25:57.284Z,49.47
2023-03-03T14:28:26.822Z,51.22
2023-03-03T14:30:57.329Z,50.58
2023-03-03T14:33:30.829Z,50.79
2023-03-03T14:35:57.497Z,50.74
2023-03-03T14:38:36.535Z,49.99
2023-03-03T14:41:12.147Z,50.77
2023-03-03T14:43:41.346Z,50.86
2023-03-03T14:46:29.304Z,50.08
2023-03-03T14:49:06.027Z,50.12
2023-03-03T14:51:46.511Z,50.48
2023-03-03T14:54:28.308Z,51.19
2023-03-03T14:57:20.243Z,51.52
2023-03-03T15:00:13.241Z,52.23
2023-03-03T15:02:52.435Z,52.34
2023-03-03T15:05:25.358Z,52.60
2023-03-03T15:07:55.277Z,52.25
2023-03-03T15:10:31.206Z,52.62
2023-03-03T15:12:57.786Z,52.85
2023-03-03T15:15:27.356Z,52.81
2023-03-03T15:18:05.239Z,53.64
2023-03-03T15:20:56.171Z,53.45
2023-03-03T15:24:00.109Z,54.91
2023-03-03T15:26:41.016Z,54.30
2023-03-03T15:29:28.099Z,54.88
2023-03-03T15:32:16.013Z,55.89
2023-03-03T15:34:59.980Z,55.59
2023-03-03T15:37:39.434Z,56.98
2023-03-03T15:40:39.147Z,56.78
2023-03-03T15:43:17.615Z,56.92
2023-03-03T15:46:02.957Z,57.67
2023-03-03T15:48:35.889Z,57.96
2023-03-03T15:51:21.198Z,58.54
2023-03-03T15:54:20.878Z,57.53
2023-03-03T15:56:58.205Z,58.73
2023-03-03T16:00:02.611Z,58.99
2023-03-03T16:02:43.150Z,59.10
2023-03-03T16:05:12.672Z,58.82
2023-03-03T16:07:53.674Z,59.42
2023-03-03T16:11:03.288Z,60.56
2023-03-03T16:13:48.488Z,59.85
2023-03-03T16:16:56.534Z,59.63
2023-03-03T16:19:46.051Z,59.66
2023-03-03T16:22:27.398Z,61.31
2023-03-03T16:25:23.242Z,61.56
2023-03-03T16:27:54.719Z,61.88
2023-03-03T16:30:46.008Z,60.97
2023-03-03T16:33:44.554Z,61.31
2023-03-03T16:36:25.626Z,61.50
2023-03-03T16:39:32.600Z,61.96
2023-03-03T16:42:05.360Z,61.70
2023-03-03T16:44:53.496Z,62.94
2023-03-03T16:47:51.896Z,62.85
2023-03-03T16:50:24.258Z,62.46
2023-03-03T16:53:06.263Z,63.23
2023-03-03T16:55:52.082Z,63.22
2023-03-03T16:58:24.666Z,63.47
2023-03-03T17:00:59.328Z,63.79
2023-03-03T17:03:53.482Z,63.43
2023-03-03T17:07:02.934Z,64.30
2023-03-03T17:09:51.910Z,64.40
2023-03-03T17:12:27.459Z,63.83
2023-03-03T17:15:23.544Z,64.59
2023-03-03T17:18:01.606Z,64.02
2023-03-03T17:20:37.025Z,63.89
2023-03-03T17:23:31.603Z,63.37
2023-03-03T17:26:16.456Z,63.51
2023-03-03T17:28:51.780Z,63.97
2023-03-03T17:31:30.398Z,64.33
2023-03-03T17:34:09.511Z,64.05
2023-03-03T17:36:50.145Z,65.42
2023-03-03T17:39:47.082Z,65.23
2023-03-03T17:42:38.381Z,65.09
2023-03-03T17:45:10.994Z,65.46
2023-03-03T17:47:43.229Z,65.20
2023-03-03T17:50:40.213Z,65.89
2023-03-03T17:53:18.174Z,65.73
2023-03-03T17:56:15.109Z,66.46
2023-03-03T17:59:23.993Z,66.02
2023-03-03T18:02:12.634Z,65.99
2023-03-03T18:05:05.858Z,66.71
2023-03-03T18:07:44.589Z,66.87
2023-03-03T18:10:29.184Z,66.63
2023-03-03T18:13:31.394Z,67.18
2023-03-03T18:16:26.582Z,66.75
2023-03-03T18:19:14.842Z,67.33
2023-03-03T18:22:02.357Z,67.27
2023-03-03T18:24:39.659Z,67.77
2023-03-03T18:27:24.331Z,67.37
2023-03-03T18:30:09.552Z,68.19
2023-03-03T18:33:01.946Z,69.03
2023-03-03T18:35:40.667Z,68.00
2023-03-03T18:38:16.403Z,68.27
2023-03-03T18:41:12.344Z,73.16
2023-03-03T18:43:44.841Z,72.52
2023-03-03T18:46:31.752Z,69.51
2023-03-03T18:49:05.818Z,68.13
2023-03-03T18:51:35.469Z,68.78
2023-03-03T18:54:07.151Z,69.20
2023-03-03T18:56:47.367Z,69.31
2023-03-03T18:59:36.915Z,70.17
2023-03-03T19:02:18.741Z,70.34
2023-03-03T19:04:56.553Z,71.18
2023-03-03T19:07:41.406Z,70.94
2023-03-03T19:10:19.887Z,70.79
2023-03-03T19:12:59.556Z,70.49
2023-03-03T19:15:33.600Z,71.31
2023-03-03T19:18:00.059Z,71.85
2023-03-03T19:20:38.148Z,71.94
2023-03-03T19:23:11.101Z,71.58
2023-03-03T19:25:38.033Z,71.98
2023-03-03T19:28:17.377Z,72.96
2023-03-03T19:31:06.294Z,73.37
2023-03-03T19:33:50.933Z,73.51
2023-03-03T19:36:52.523Z,74.41
2023-03-03T19:39:56.192Z,73.93
2023-03-03T19:42:47.457Z,74.55
2023-03-03T19:45:27.311Z,74.04
2023-03-03T19:48:12.763Z,74.09
2023-03-03T19:50:51.365Z,73.99
2023-03-03T19:53:46.871Z,75.25
2023-03-03T19:56:38.138Z,74.51
2023-03-03T19:59:22.791Z,75.00
2023-03-03T20:02:13.584Z,75.28
2023-03-03T20:04:55.305Z,75.46
2023-03-03T20:07:49.569Z,76.24
2023-03-03T20:10:16.069Z,76.52
2023-03-03T20:13:06.717Z,75.62
2023-03-03T20:15:41.786Z,75.90
2023-03-03T20:18:22.440Z,76.36
2023-03-03T20:20:55.850Z,76.44
2023-03-03T20:23:42.977Z,77.06
2023-03-03T20:26:29.119Z,76.69
2023-03-03T20:29:04.758Z,76.94
2023-03-03T20:31:44.189Z,76.52
2023-03-03T20:34:51.665Z,77.17
2023-03-03T20:37:24.171Z,76.33
2023-03-03T20:40:13.985Z,76.37
2023-03-03T20:42:59.313Z,76.80
2023-03-03T20:45:38.740Z,75.81
2023-03-03T20:48:31.727Z,75.33
2023-03-03T20:51:10.557Z,74.69
2023-03-03T20:54:04.698Z,75.32
2023-03-03T20:56:51.560Z,75.87
2023-03-03T20:59:42.202Z,76.02
2023-03-03T21:02:17.628Z,75.95
2023-03-03T21:04:44.241Z,75.75
2023-03-03T21:07:26.222Z,75.98
2023-03-03T21:10:20.204Z,75.81
2023-03-03T21:12:46.550Z,75.59
2023-03-03T21:15:26.997Z,75.79
2023-03-03T21:17:55.029Z,75.71
2023-03-03T21:20:29.362Z,75.68
2023-03-03T21:22:57.342Z,75.17
2023-03-03T21:25:57.730Z,76.23
2023-03-03T21:28:32.610Z,75.33
2023-03-03T21:31:06.799Z,75.84
2023-03-03T21:33:56.545Z,76.46
2023-03-03T21:36:32.072Z,75.73
2023-03-03T21:38:58.922Z,76.66
2023-03-03T21:41:25.438Z,76.45
2023-03-03T21:43:53.678Z,77.07
2023-03-03T21:46:21.992Z,77.26
2023-03-03T21:48:49.552Z,77.16
2023-03-03T21:51:16.041Z,77.80
2023-03-03T21:53:44.159Z,77.57
2023-03-03T21:56:13.570Z,78.03
2023-03-03T21:58:43.370Z,78.00
2023-03-03T22:01:10.445Z,78.66
2023-03-03T22:03:37.087Z,79.07
2023-03-03T22:06:03.894Z,78.38
2023-03-03T22:08:30.409Z,79.25
2023-03-03T22:10:57.004Z,79.79
2023-03-03T22:13:25.940Z,79.36
2023-03-03T22:15:53.199Z,80.35
2023-03-03T22:18:20.211Z,80.12
2023-03-03T22:20:48.131Z,80.40
2023-03-03T22:23:15.376Z,81.25
2023-03-03T22:25:42.038Z,81.98
2023-03-03T22:28:08.684Z,82.15
2023-03-03T22:30:35.733Z,82.43
2023-03-03T22:33:02.459Z,81.95
2023-03-03T22:35:29.006Z,82.23
2023-03-03T22:37:55.501Z,81.85
2023-03-03T22:40:22.211Z,81.99
2023-03-03T22:42:48.751Z,81.09
2023-03-03T22:45:15.516Z,82.11
2023-03-03T22:47:42.015Z,81.83
2023-03-03T22:50:09.266Z,82.83
2023-03-03T22:52:35.796Z,81.76
2023-03-03T22:55:04.128Z,81.63
2023-03-03T22:57:31.276Z,80.95
2023-03-03T22:59:58.098Z,81.06
2023-03-03T23:02:24.615Z,82.17
2023-03-03T23:04:57.619Z,82.59
2023-03-03T23:07:26.300Z,82.41
2023-03-03T23:09:52.785Z,82.72
2023-03-03T23:12:19.405Z,83.15
2023-03-03T23:14:45.924Z,83.17
2023-03-03T23:17:12.444Z,83.23
2023-03-03T23:19:38.911Z,84.02
2023-03-03T23:22:05.414Z,84.20
2023-03-03T23:24:33.159Z,83.70
2023-03-03T23:27:00.693Z,84.22
2023-03-03T23:29:27.334Z,83.32
2023-03-03T23:31:53.830Z,83.68
2023-03-03T23:34:20.345Z,84.40
2023-03-03T23:36:46.895Z,84.97
2023-03-03T23:39:13.473Z,84.45
2023-03-03T23:41:39.930Z,84.11
2023-03-03T23:44:06.631Z,85.42
2023-03-03T23:46:33.200Z,84.31
2023-03-03T23:49:02.078Z,84.11
2023-03-03T23:51:28.567Z,84.76
2023-03-03T23:53:55.159Z,86.02
2023-03-03T23:56:21.774Z,84.78
2023-03-03T23:58:48.334Z,84.93
